Time;durP1;ratioP1;P1;durP2;ratioP2;P2;SDS_P1;SDS_P2;PMS_P1;PMS_P2;Temp;Humidity;BMP_temperature;BMP_pressure;BME280_temperature;BME280_humidity;BME280_pressure;Samples;Min_cycle;Max_cycle;Signal;HPM_P1;HPM_P2
2024/01/26 00:01:25;;;;;;;2.50;2.30;;;8.60;99.90;;;;;;5119080;27;21026;-88
2024/01/26 00:03:52;;;;;;;3.10;2.87;;;;;;;;;;5116932;27;20630;-89
2024/01/26 00:06:19;;;;;;;2.80;2.50;;;;;;;;;;5112877;27;20663;-89
2024/01/26 00:08:47;;;;;;;2.60;2.33;;;;;;;;;;5117349;27;20615;-88
2024/01/26 00:11:15;;;;;;;2.43;2.23;;;8.50;99.90;;;;;;5118534;27;20645;-86
2024/01/26 00:13:42;;;;;;;2.20;1.93;;;;;;;;;;5118379;27;20634;-88
2024/01/26 00:16:09;;;;;;;3.17;2.07;;;8.40;99.90;;;;;;5127531;27;21045;-90
2024/01/26 00:18:36;;;;;;;2.53;2.33;;;;;;;;;;5115756;27;20947;-89
2024/01/26 00:21:04;;;;;;;1.73;1.50;;;8.30;99.90;;;;;;5114942;27;21186;-89
2024/01/26 00:23:31;;;;;;;1.87;1.60;;;;;;;;;;5117990;27;21070;-89
2024/01/26 00:25:59;;;;;;;1.30;1.20;;;;;;;;;;5117485;27;20738;-89
2024/01/26 00:28:26;;;;;;;1.47;1.37;;;;;;;;;;5117582;27;20724;-89
2024/01/26 00:30:53;;;;;;;1.30;1.20;;;;;;;;;;5117589;27;20627;-89
2024/01/26 00:33:20;;;;;;;1.00;1.00;;;;;;;;;;5116525;27;20734;-88
2024/01/26 00:35:48;;;;;;;1.37;1.20;;;;;;;;;;5111911;27;21046;-89
2024/01/26 00:38:15;;;;;;;1.03;0.90;;;;;;;;;;5117332;27;20665;-89
2024/01/26 00:40:42;;;;;;;1.10;1.00;;;;;;;;;;5116843;27;21465;-90
2024/01/26 00:43:10;;;;;;;1.37;1.20;;;;;;;;;;5116279;27;20761;-89
2024/01/26 00:45:37;;;;;;;1.57;1.47;;;;;;;;;;5114103;27;21280;-89
2024/01/26 00:48:05;;;;;;;1.30;1.20;;;8.40;99.90;;;;;;5118235;27;20746;-90
2024/01/26 00:50:32;;;;;;;1.50;1.27;;;;;;;;;;5123946;27;20732;-89
2024/01/26 00:52:59;;;;;;;1.13;0.93;;;;;;;;;;5114143;27;20686;-89
2024/01/26 00:55:29;;;;;;;0.90;0.90;;;8.10;99.90;;;;;;5119916;27;20643;-89
2024/01/26 00:57:56;;;;;;;1.60;1.50;;;;;;;;;;5115993;27;20635;-90
2024/01/26 01:00:25;;;;;;;1.53;1.07;;;8.20;99.90;;;;;;5103639;28;21180;-89
2024/01/26 01:02:53;;;;;;;1.30;1.20;;;;;;;;;;5115286;27;21102;-90
2024/01/26 01:05:20;;;;;;;2.50;0.90;;;8.10;99.90;;;;;;5117007;27;20677;-89
2024/01/26 01:07:47;;;;;;;0.77;0.77;;;;;;;;;;5110975;28;20627;-88
2024/01/26 01:10:15;;;;;;;1.00;0.77;;;7.90;99.90;;;;;;5117970;27;20666;-89
2024/01/26 01:12:42;;;;;;;1.23;1.13;;;;;;;;;;5112703;27;20624;-90
2024/01/26 01:15:11;;;;;;;0.90;0.87;;;8.10;99.90;;;;;;5112997;27;20668;-89
2024/01/26 01:17:40;;;;;;;1.20;1.10;;;;;;;;;;5114261;27;20642;-89
2024/01/26 01:20:08;;;;;;;0.73;0.73;;;7.90;99.90;;;;;;5114367;27;20631;-89
2024/01/26 01:22:35;;;;;;;1.60;1.03;;;7.70;99.90;;;;;;5114127;27;20663;-89
2024/01/26 01:25:02;;;;;;;1.27;1.17;;;;;;;;;;5114157;27;20627;-90
2024/01/26 01:27:31;;;;;;;1.17;1.07;;;;;;;;;;5111245;28;21192;-89
2024/01/26 01:29:59;;;;;;;1.67;1.00;;;;;;;;;;5114381;27;20627;-89
2024/01/26 01:32:26;;;;;;;1.50;1.20;;;;;;;;;;5113495;27;20728;-89
2024/01/26 01:34:54;;;;;;;3.10;1.10;;;8.10;99.90;;;;;;5113536;27;21084;-89
2024/01/26 01:37:21;;;;;;;0.80;0.80;;;;;;;;;;5112853;27;20960;-89
2024/01/26 01:39:49;;;;;;;1.33;1.00;;;8.00;99.90;;;;;;5106646;27;20625;-90
2024/01/26 01:42:16;;;;;;;1.57;1.43;;;;;;;;;;5111184;27;20656;-89
2024/01/26 01:44:43;;;;;;;0.90;0.87;;;8.10;99.90;;;;;;5113002;27;20727;-89
2024/01/26 01:47:11;;;;;;;1.10;1.00;;;;;;;;;;5112011;27;21180;-89
2024/01/26 01:49:39;;;;;;;0.97;0.90;;;8.10;99.90;;;;;;5105933;27;21040;-89
2024/01/26 01:52:09;;;;;;;1.13;1.03;;;8.30;99.90;;;;;;5101878;27;20723;-89
2024/01/26 01:54:37;;;;;;;1.07;0.97;;;8.00;99.90;;;;;;5101888;28;20723;-89
2024/01/26 01:57:06;;;;;;;0.80;0.80;;;7.70;99.90;;;;;;5111766;27;21024;-89
2024/01/26 01:59:33;;;;;;;0.90;0.90;;;;;;;;;;5112489;27;20722;-90
2024/01/26 02:02:01;;;;;;;1.10;1.00;;;;;;;;;;5110330;27;20624;-89
2024/01/26 02:04:28;;;;;;;0.87;0.83;;;8.10;99.90;;;;;;5111673;27;20673;-89
2024/01/26 02:06:55;;;;;;;1.67;0.93;;;8.20;99.90;;;;;;5111066;28;20751;-88
2024/01/26 02:09:24;;;;;;;0.90;0.90;;;;;;;;;;5101550;28;20627;-89
2024/01/26 02:11:52;;;;;;;0.70;0.70;;;8.10;99.90;;;;;;5111004;27;20707;-89
2024/01/26 02:14:19;;;;;;;2.03;1.00;;;;;;;;;;5109436;27;20742;-89
2024/01/26 02:16:53;;;;;;;1.43;0.90;;;;;;;;;;5110618;27;20301;-89
2024/01/26 02:19:20;;;;;;;1.10;1.00;;;;;;;;;;5110988;28;20629;-89
2024/01/26 02:21:48;;;;;;;1.17;0.73;;;;;;;;;;5110168;28;20628;-89
2024/01/26 02:24:17;;;;;;;0.77;0.77;;;;;;;;;;5110387;28;20722;-89
2024/01/26 02:26:44;;;;;;;0.80;0.70;;;;;;;;;;5109761;28;21047;-89
2024/01/26 02:29:12;;;;;;;1.53;1.23;;;8.20;99.90;;;;;;5110221;28;20635;-89
2024/01/26 02:31:39;;;;;;;1.23;1.13;;;8.10;99.90;;;;;;5109670;28;21223;-88
2024/01/26 02:34:11;;;;;;;1.10;0.90;;;;;;;;;;5111343;27;20722;-88
2024/01/26 02:36:38;;;;;;;1.30;1.20;;;;;;;;;;5115841;27;20619;-89
2024/01/26 02:39:06;;;;;;;1.10;0.90;;;;;;;;;;5117334;27;20656;-89
2024/01/26 02:41:35;;;;;;;1.07;0.73;;;8.10;99.90;;;;;;5110465;27;20634;-89
2024/01/26 02:44:05;;;;;;;1.90;1.00;;;;;;;;;;5117780;27;20706;-88
2024/01/26 02:46:32;;;;;;;1.00;1.00;;;8.10;99.90;;;;;;5114284;28;20630;-89
2024/01/26 02:49:01;;;;;;;0.83;0.83;;;;;;;;;;5112981;27;20627;-88
2024/01/26 02:51:30;;;;;;;0.80;0.80;;;;;;;;;;5102392;28;20711;-89
2024/01/26 02:53:57;;;;;;;0.90;0.80;;;;;;;;;;5110888;28;20616;-89
2024/01/26 02:56:24;;;;;;;0.80;0.80;;;;;;;;;;5113188;27;20615;-87
2024/01/26 02:58:53;;;;;;;0.90;0.90;;;;;;;;;;5116028;28;21291;-89
2024/01/26 03:01:20;;;;;;;1.03;0.93;;;;;;;;;;5111931;27;20618;-89
2024/01/26 03:03:48;;;;;;;1.47;1.00;;;;;;;;;;5114175;27;20746;-89
2024/01/26 03:06:17;;;;;;;4.33;1.20;;;;;;;;;;5116081;27;20734;-89
2024/01/26 03:08:45;;;;;;;6.67;1.27;;;8.30;99.90;;;;;;5116808;28;21138;-88
2024/01/26 03:11:14;;;;;;;1.20;1.10;;;8.00;99.90;;;;;;5116665;27;21293;-89
2024/01/26 03:13:42;;;;;;;1.47;1.30;;;;;;;;;;5113794;28;20627;-89
2024/01/26 03:16:11;;;;;;;1.03;1.00;;;8.20;99.90;;;;;;5110927;27;21129;-88
2024/01/26 03:18:38;;;;;;;1.00;0.90;;;8.20;99.90;;;;;;5103169;28;20970;-89
2024/01/26 03:21:05;;;;;;;1.00;0.90;;;8.10;99.90;;;;;;5117774;27;20642;-89
2024/01/26 03:23:32;;;;;;;1.63;1.20;;;8.10;99.90;;;;;;5119497;27;20655;-89
2024/01/26 03:25:59;;;;;;;1.30;1.20;;;7.80;99.90;;;;;;5119470;27;20619;-89
2024/01/26 03:28:25;;;;;;;1.43;1.33;;;8.00;99.90;;;;;;5114736;27;20972;-88
2024/01/26 03:30:54;;;;;;;1.10;1.00;;;8.10;99.90;;;;;;5117714;27;20624;-88
2024/01/26 03:33:22;;;;;;;1.50;1.10;;;8.00;99.90;;;;;;5118314;27;20664;-88
2024/01/26 03:35:51;;;;;;;1.60;1.50;;;7.90;99.90;;;;;;5119207;27;20628;-89
2024/01/26 03:38:19;;;;;;;1.30;1.20;;;;;;;;;;5118172;27;20670;-89
2024/01/26 03:40:46;;;;;;;1.40;1.30;;;;;;;;;;5108937;27;21018;-89
2024/01/26 03:43:14;;;;;;;1.70;1.30;;;;;;;;;;5113907;27;20655;-88
2024/01/26 03:45:42;;;;;;;1.20;1.10;;;;;;;;;;5118573;27;20959;-89
2024/01/26 03:48:10;;;;;;;1.97;1.63;;;8.10;99.90;;;;;;5117687;27;20628;-89
2024/01/26 03:50:40;;;;;;;2.90;1.53;;;;;;;;;;5118299;27;20660;-89
2024/01/26 03:53:08;;;;;;;1.73;1.63;;;7.80;99.90;;;;;;5117441;27;20626;-89
2024/01/26 03:55:37;;;;;;;1.83;1.63;;;8.20;99.90;;;;;;5104690;27;20658;-89
2024/01/26 03:58:05;;;;;;;1.40;1.30;;;8.10;99.90;;;;;;5115673;27;20685;-89
2024/01/26 04:00:34;;;;;;;1.43;1.33;;;;;;;;;;5118820;27;20627;-88
2024/01/26 04:03:02;;;;;;;1.60;1.50;;;;;;;;;;5124893;27;20673;-89
2024/01/26 04:05:30;;;;;;;1.40;1.30;;;7.00;99.90;;;;;;5130113;27;20611;-89
2024/01/26 04:07:59;;;;;;;1.20;1.10;;;;;;;;;;5129505;27;21010;-89
2024/01/26 04:10:26;;;;;;;2.83;1.40;;;;;;;;;;5126318;27;20623;-88
2024/01/26 04:12:53;;;;;;;1.20;1.10;;;;;;;;;;5130255;27;20615;-88
2024/01/26 04:15:21;;;;;;;1.60;1.50;;;;;;;;;;5124737;27;20715;-89
2024/01/26 04:17:47;;;;;;;1.43;1.33;;;7.90;99.90;;;;;;5117814;27;20636;-88
2024/01/26 04:20:14;;;;;;;2.30;2.10;;;7.90;99.90;;;;;;5115495;27;20719;-89
2024/01/26 04:22:43;;;;;;;1.50;1.33;;;7.80;99.90;;;;;;5117968;27;20608;-89
2024/01/26 04:25:11;;;;;;;3.03;1.30;;;8.00;99.90;;;;;;5119904;27;21007;-89
2024/01/26 04:27:38;;;;;;;1.40;1.30;;;;;;;;;;5119179;27;20630;-89
2024/01/26 04:30:07;;;;;;;1.73;1.63;;;8.00;99.90;;;;;;5119419;27;20653;-88
2024/01/26 04:32:34;;;;;;;1.60;1.50;;;8.00;99.90;;;;;;5115303;27;20622;-89
2024/01/26 04:35:01;;;;;;;1.43;1.33;;;7.40;99.90;;;;;;5115552;27;20684;-88
2024/01/26 04:37:28;;;;;;;2.27;2.10;;;7.80;99.90;;;;;;5118295;27;21041;-88
2024/01/26 04:39:55;;;;;;;2.53;2.10;;;7.60;99.90;;;;;;5111522;27;20633;-88
2024/01/26 04:42:23;;;;;;;2.83;2.00;;;7.90;99.90;;;;;;5117550;27;20624;-88
2024/01/26 04:44:49;;;;;;;1.77;1.67;;;7.90;99.90;;;;;;5117499;27;20753;-89
2024/01/26 04:47:17;;;;;;;1.40;1.30;;;8.10;99.90;;;;;;5113084;27;21263;-89
2024/01/26 04:49:44;;;;;;;3.03;2.10;;;7.30;99.90;;;;;;5117770;27;20628;-89
2024/01/26 04:52:11;;;;;;;2.20;2.00;;;;;;;;;;5117759;27;20982;-89
2024/01/26 04:54:38;;;;;;;3.10;2.70;;;;;;;;;;5116475;27;20623;-88
2024/01/26 04:57:05;;;;;;;3.20;2.53;;;;;;;;;;5115410;27;20654;-89
2024/01/26 04:59:34;;;;;;;5.03;2.90;;;8.10;99.90;;;;;;5113909;27;21227;-88
2024/01/26 05:02:01;;;;;;;5.43;1.97;;;8.20;99.90;;;;;;5114424;27;20689;-88
2024/01/26 05:04:27;;;;;;;1.20;1.10;;;7.90;99.90;;;;;;5117420;27;20663;-88
2024/01/26 05:06:55;;;;;;;1.83;1.70;;;8.00;99.90;;;;;;5117128;27;20719;-88
2024/01/26 05:09:21;;;;;;;1.80;1.70;;;7.80;99.90;;;;;;5116549;27;20604;-89
2024/01/26 05:11:48;;;;;;;3.07;2.07;;;;;;;;;;5114707;27;20618;-89
2024/01/26 05:14:15;;;;;;;1.83;1.73;;;;;;;;;;5112735;27;20718;-89
2024/01/26 05:16:43;;;;;;;1.70;1.60;;;7.90;99.90;;;;;;5116426;27;20715;-89
2024/01/26 05:19:10;;;;;;;2.20;1.40;;;8.00;99.90;;;;;;5116356;27;20731;-89
2024/01/26 05:21:37;;;;;;;1.30;1.20;;;7.90;99.90;;;;;;5115672;27;20632;-88
2024/01/26 05:24:04;;;;;;;1.00;1.00;;;8.10;99.90;;;;;;5115350;27;20658;-90
2024/01/26 05:26:32;;;;;;;1.47;1.10;;;;;;;;;;5111868;27;20771;-90
2024/01/26 05:28:58;;;;;;;2.03;1.20;;;7.90;99.90;;;;;;5115107;27;20723;-89
2024/01/26 05:31:25;;;;;;;1.43;1.17;;;;;;;;;;5115641;27;20620;-89
2024/01/26 05:33:54;;;;;;;1.60;1.30;;;8.00;99.90;;;;;;5115138;27;21072;-89
2024/01/26 05:36:21;;;;;;;1.37;1.27;;;;;;;;;;5113925;27;20969;-90
2024/01/26 05:38:48;;;;;;;1.20;1.10;;;;;;;;;;5113554;27;20628;-89
2024/01/26 05:41:15;;;;;;;1.50;1.17;;;;;;;;;;5104120;27;20722;-90
2024/01/26 05:43:42;;;;;;;1.10;0.93;;;8.00;99.90;;;;;;5113252;27;20797;-89
2024/01/26 05:46:09;;;;;;;1.33;1.23;;;7.90;99.90;;;;;;5114313;27;20723;-89
2024/01/26 05:48:36;;;;;;;1.00;1.00;;;7.90;99.90;;;;;;5114496;27;20623;-88
2024/01/26 05:51:04;;;;;;;1.33;1.23;;;;;;;;;;5113577;27;21206;-89
2024/01/26 05:53:31;;;;;;;0.97;0.97;;;8.10;99.90;;;;;;5108179;28;20623;-89
2024/01/26 05:56:00;;;;;;;1.43;1.33;;;7.90;99.90;;;;;;5109423;27;20624;-89
2024/01/26 05:58:27;;;;;;;1.33;1.10;;;;;;;;;;5109080;27;20678;-89
2024/01/26 06:00:54;;;;;;;1.33;0.97;;;7.90;99.90;;;;;;5113559;27;20841;-88
2024/01/26 06:03:21;;;;;;;1.30;1.20;;;;;;;;;;5112592;27;20627;-87
2024/01/26 06:05:48;;;;;;;1.70;1.30;;;7.90;99.90;;;;;;5111070;27;21214;-88
2024/01/26 06:08:16;;;;;;;2.00;1.40;;;7.80;99.90;;;;;;5111877;28;20953;-88
2024/01/26 06:10:43;;;;;;;1.20;1.10;;;7.80;99.90;;;;;;5112180;27;20665;-89
2024/01/26 06:13:10;;;;;;;1.13;1.03;;;8.00;99.90;;;;;;5111863;27;21160;-88
2024/01/26 06:15:37;;;;;;;1.33;1.10;;;;;;;;;;5112554;27;21076;-89
2024/01/26 06:18:04;;;;;;;1.57;1.40;;;7.60;99.90;;;;;;5107011;28;20953;-86
2024/01/26 06:20:31;;;;;;;1.10;1.00;;;7.80;99.90;;;;;;5090835;28;20617;-85
2024/01/26 06:22:58;;;;;;;1.67;1.57;;;7.90;99.90;;;;;;5103988;27;20988;-85
2024/01/26 06:25:27;;;;;;;1.60;1.40;;;7.60;99.90;;;;;;5095202;28;20667;-85
2024/01/26 06:27:53;;;;;;;1.63;1.53;;;7.80;99.90;;;;;;5096851;27;20727;-84
2024/01/26 06:30:20;;;;;;;1.33;1.23;;;7.40;99.90;;;;;;5093967;28;20632;-85
2024/01/26 06:32:47;;;;;;;2.00;1.00;;;7.70;99.90;;;;;;5088059;28;20625;-85
2024/01/26 06:35:14;;;;;;;3.17;1.20;;;7.80;99.90;;;;;;5098106;28;20621;-84
2024/01/26 06:37:41;;;;;;;3.30;1.57;;;8.00;99.90;;;;;;5097460;27;20648;-85
2024/01/26 06:40:11;;;;;;;3.00;1.27;;;7.70;99.90;;;;;;5104845;27;20730;-85
2024/01/26 06:42:40;;;;;;;1.20;1.10;;;8.00;99.90;;;;;;5096687;27;20620;-85
2024/01/26 06:45:10;;;;;;;2.00;1.27;;;8.00;99.90;;;;;;5099079;28;20766;-85
2024/01/26 06:47:37;;;;;;;2.27;1.60;;;8.00;99.90;;;;;;5095997;28;20635;-84
2024/01/26 06:50:04;;;;;;;2.10;1.20;;;8.00;99.90;;;;;;5111394;28;20634;-85
2024/01/26 06:52:32;;;;;;;1.23;1.13;;;;;;;;;;5104734;28;20624;-85
2024/01/26 06:55:01;;;;;;;1.20;1.10;;;8.10;99.90;;;;;;5106044;27;21245;-81
2024/01/26 06:57:28;;;;;;;1.13;0.90;;;8.00;99.90;;;;;;5108743;27;20627;-84
2024/01/26 06:59:56;;;;;;;1.30;1.20;;;8.20;99.90;;;;;;5109245;28;21035;-85
2024/01/26 07:02:24;;;;;;;1.43;1.33;;;8.30;99.90;;;;;;5107146;27;21219;-86
2024/01/26 07:04:50;;;;;;;0.90;0.90;;;8.10;99.90;;;;;;5096941;27;20664;-86
2024/01/26 07:07:17;;;;;;;1.20;1.10;;;8.50;99.90;;;;;;5103994;27;20628;-79
2024/01/26 07:09:46;;;;;;;1.20;0.87;;;8.30;99.90;;;;;;5107783;27;20625;-78
2024/01/26 07:12:13;;;;;;;1.70;1.40;;;8.80;99.90;;;;;;5101020;27;20719;-78
2024/01/26 07:14:40;;;;;;;3.97;1.50;;;8.80;99.90;;;;;;5114288;27;20634;-79
2024/01/26 07:17:08;;;;;;;1.30;1.10;;;8.30;99.90;;;;;;5123235;27;20624;-78
2024/01/26 07:19:35;;;;;;;0.93;0.90;;;8.40;99.90;;;;;;5118188;27;20620;-79
2024/01/26 07:22:05;;;;;;;3.00;1.00;;;8.60;99.90;;;;;;5127546;27;20623;-78
2024/01/26 07:24:32;;;;;;;1.70;1.37;;;;;;;;;;5119084;27;20662;-79
2024/01/26 07:26:58;;;;;;;1.83;1.27;;;8.70;99.90;;;;;;5107823;27;20668;-78
2024/01/26 07:29:25;;;;;;;3.57;1.43;;;9.00;99.90;;;;;;5107321;27;20731;-78
2024/01/26 07:31:52;;;;;;;1.20;1.20;;;8.50;99.90;;;;;;5105985;27;21030;-78
2024/01/26 07:34:20;;;;;;;7.40;1.37;;;8.60;99.90;;;;;;5121100;27;20725;-79
2024/01/26 07:36:47;;;;;;;2.33;1.47;;;;;;;;;;5119457;27;20714;-79
2024/01/26 07:39:15;;;;;;;0.90;0.90;;;8.70;99.90;;;;;;5114927;27;20620;-78
2024/01/26 07:41:42;;;;;;;3.27;1.40;;;8.70;99.90;;;;;;5121620;27;21248;-79
2024/01/26 07:44:09;;;;;;;2.00;1.20;;;8.50;99.90;;;;;;5122569;27;20996;-78
2024/01/26 07:46:38;;;;;;;1.33;1.23;;;8.70;99.90;;;;;;5105836;27;20654;-78
2024/01/26 07:49:05;;;;;;;1.50;1.40;;;8.70;99.90;;;;;;5107280;27;20645;-78
2024/01/26 07:51:33;;;;;;;2.03;1.50;;;8.90;99.90;;;;;;5100378;27;20724;-78
2024/01/26 07:54:00;;;;;;;1.37;1.27;;;8.60;99.90;;;;;;5108442;27;21182;-78
2024/01/26 07:56:27;;;;;;;2.30;1.40;;;;;;;;;;5103295;27;20993;-79
2024/01/26 07:58:54;;;;;;;1.50;1.40;;;8.80;99.90;;;;;;5107813;27;20711;-79
2024/01/26 08:01:21;;;;;;;2.50;1.57;;;8.80;99.90;;;;;;5109059;27;20748;-78
2024/01/26 08:03:48;;;;;;;2.67;1.60;;;8.80;99.90;;;;;;5105417;27;20655;-79
2024/01/26 08:06:14;;;;;;;1.50;1.40;;;8.80;99.90;;;;;;5098791;27;20640;-78
2024/01/26 08:08:43;;;;;;;1.33;1.23;;;8.90;99.90;;;;;;5103608;27;20653;-78
2024/01/26 08:11:10;;;;;;;3.33;1.43;;;8.30;99.90;;;;;;5104041;27;20724;-79
2024/01/26 08:13:36;;;;;;;1.30;1.20;;;9.10;99.90;;;;;;5102943;27;20625;-79
2024/01/26 08:16:03;;;;;;;4.73;0.93;;;9.10;99.90;;;;;;5102092;27;20626;-78
2024/01/26 08:18:30;;;;;;;1.47;1.37;;;9.10;99.90;;;;;;5093432;27;20713;-79
2024/01/26 08:20:57;;;;;;;1.93;1.27;;;9.00;99.90;;;;;;5099106;27;20716;-78
2024/01/26 08:23:24;;;;;;;1.80;1.00;;;9.10;99.90;;;;;;5101232;27;20719;-79
2024/01/26 08:25:52;;;;;;;1.50;1.40;;;9.20;99.90;;;;;;5101930;27;20736;-79
2024/01/26 08:28:18;;;;;;;1.70;1.60;;;9.10;99.90;;;;;;5111852;27;20794;-79
2024/01/26 08:30:46;;;;;;;3.50;1.47;;;;;;;;;;5114569;27;21024;-79
2024/01/26 08:33:12;;;;;;;1.50;1.40;;;9.20;99.90;;;;;;5114286;27;20696;-78
2024/01/26 08:35:39;;;;;;;2.20;1.00;;;9.30;99.90;;;;;;5115635;27;21175;-79
2024/01/26 08:38:06;;;;;;;2.53;1.23;;;9.20;99.90;;;;;;5115336;27;20734;-78
2024/01/26 08:40:33;;;;;;;1.53;1.20;;;9.30;99.90;;;;;;5112321;27;20606;-78
2024/01/26 08:43:01;;;;;;;1.67;1.57;;;9.30;99.90;;;;;;5115489;27;21036;-78
2024/01/26 08:45:28;;;;;;;2.57;1.30;;;9.20;99.90;;;;;;5103777;28;20723;-79
2024/01/26 08:47:55;;;;;;;2.27;1.00;;;;;;;;;;5115501;27;21448;-78
2024/01/26 08:50:22;;;;;;;1.97;1.30;;;9.60;99.90;;;;;;5114297;27;20744;-79
2024/01/26 08:52:48;;;;;;;1.40;1.30;;;9.80;99.90;;;;;;5115447;27;20636;-79
2024/01/26 08:55:16;;;;;;;2.20;1.03;;;9.40;99.90;;;;;;5108125;27;20680;-79
2024/01/26 08:57:43;;;;;;;1.40;1.10;;;9.50;99.90;;;;;;5112162;27;20624;-79
2024/01/26 09:00:15;;;;;;;1.27;1.17;;;9.50;99.90;;;;;;5112966;27;20990;-78
2024/01/26 09:02:41;;;;;;;1.43;1.30;;;9.50;99.90;;;;;;5113077;27;20648;-78
2024/01/26 09:05:09;;;;;;;1.60;1.27;;;9.70;99.90;;;;;;5114617;27;20712;-79
2024/01/26 09:07:36;;;;;;;2.27;1.47;;;9.50;99.90;;;;;;5114335;27;20626;-78
2024/01/26 09:10:03;;;;;;;1.60;1.50;;;9.60;99.90;;;;;;5113826;27;20728;-79
2024/01/26 09:12:30;;;;;;;1.13;1.03;;;9.70;99.90;;;;;;5110988;28;20625;-78
2024/01/26 09:14:57;;;;;;;1.37;1.27;;;9.90;99.90;;;;;;5113704;27;21024;-78
2024/01/26 09:17:26;;;;;;;1.53;1.07;;;10.10;99.90;;;;;;5111975;27;20719;-79
2024/01/26 09:19:52;;;;;;;1.43;1.27;;;9.60;99.90;;;;;;5113020;27;20679;-79
2024/01/26 09:22:19;;;;;;;1.63;1.53;;;9.50;99.90;;;;;;5112700;27;20624;-78
2024/01/26 09:24:46;;;;;;;1.80;1.17;;;10.00;99.90;;;;;;5110879;28;21234;-79
2024/01/26 09:27:13;;;;;;;1.50;1.30;;;9.80;99.90;;;;;;5108633;28;20631;-78
2024/01/26 09:29:40;;;;;;;1.40;1.20;;;9.90;99.90;;;;;;5112237;27;20619;-79
2024/01/26 09:32:07;;;;;;;1.23;1.13;;;9.90;99.90;;;;;;5112081;27;20626;-78
2024/01/26 09:34:35;;;;;;;1.87;1.30;;;10.10;99.90;;;;;;5112078;27;21260;-78
2024/01/26 09:37:02;;;;;;;1.20;1.10;;;10.70;99.90;;;;;;5110754;27;20625;-79
2024/01/26 09:39:28;;;;;;;2.13;1.47;;;9.90;99.90;;;;;;5107196;28;20723;-78
2024/01/26 09:41:56;;;;;;;1.73;1.43;;;9.80;99.90;;;;;;5108461;27;20657;-77
2024/01/26 09:44:23;;;;;;;2.73;1.20;;;9.90;99.90;;;;;;5110864;27;20619;-78
2024/01/26 09:46:50;;;;;;;1.23;1.13;;;10.00;99.90;;;;;;5111541;27;20646;-79
2024/01/26 09:49:17;;;;;;;1.60;1.50;;;9.90;99.90;;;;;;5110451;28;20696;-79
2024/01/26 09:51:45;;;;;;;2.60;1.40;;;10.20;99.90;;;;;;5110251;28;20733;-78
2024/01/26 09:54:13;;;;;;;1.30;1.20;;;9.90;99.90;;;;;;5104078;27;20685;-79
2024/01/26 09:56:42;;;;;;;1.17;1.07;;;10.00;99.90;;;;;;5106974;27;21167;-79
2024/01/26 09:59:11;;;;;;;3.50;1.37;;;10.10;99.90;;;;;;5110942;27;20725;-79
2024/01/26 10:01:39;;;;;;;1.47;1.00;;;10.10;99.90;;;;;;5110150;27;20670;-78
2024/01/26 10:04:08;;;;;;;1.27;1.17;;;10.20;99.90;;;;;;5110360;28;20988;-78
2024/01/26 10:06:35;;;;;;;1.50;1.40;;;;;;;;;;5110568;28;20762;-79
2024/01/26 10:09:04;;;;;;;2.03;1.43;;;10.40;99.90;;;;;;5109644;28;21230;-78
2024/01/26 10:11:32;;;;;;;2.40;1.37;;;10.10;99.90;;;;;;5117974;27;20626;-79
2024/01/26 10:13:58;;;;;;;2.00;1.20;;;10.30;99.90;;;;;;5118121;27;20621;-78
2024/01/26 10:16:25;;;;;;;1.30;1.20;;;10.20;99.90;;;;;;5113136;27;21054;-78
2024/01/26 10:18:52;;;;;;;5.20;1.70;;;;;;;;;;5114645;27;20661;-79
2024/01/26 10:21:20;;;;;;;1.60;1.20;;;10.40;99.90;;;;;;5117648;27;20665;-79
2024/01/26 10:23:47;;;;;;;1.77;1.67;;;10.60;99.90;;;;;;5101960;28;20620;-78
2024/01/26 10:26:15;;;;;;;1.70;1.50;;;10.40;99.90;;;;;;5106401;27;20665;-79
2024/01/26 10:28:44;;;;;;;4.20;1.40;;;10.70;99.90;;;;;;5109488;27;20726;-78
2024/01/26 10:31:10;;;;;;;1.30;1.20;;;10.60;99.90;;;;;;5109645;28;21199;-78
2024/01/26 10:33:40;;;;;;;1.60;1.50;;;10.20;99.90;;;;;;5116290;27;20718;-79
2024/01/26 10:36:09;;;;;;;1.53;1.43;;;10.40;99.90;;;;;;5101153;28;21187;-78
2024/01/26 10:38:37;;;;;;;2.50;1.37;;;10.50;99.90;;;;;;5108363;27;20632;-78
2024/01/26 10:41:05;;;;;;;1.77;1.40;;;10.40;99.90;;;;;;5117365;27;21258;-78
2024/01/26 10:43:34;;;;;;;1.20;1.10;;;10.60;99.90;;;;;;5112481;27;20726;-79
2024/01/26 10:46:02;;;;;;;2.13;1.50;;;10.40;99.90;;;;;;5113842;27;20679;-79
2024/01/26 10:48:30;;;;;;;1.53;1.43;;;10.40;99.90;;;;;;5117044;27;20619;-78
2024/01/26 10:50:57;;;;;;;1.97;1.87;;;10.30;99.90;;;;;;5116021;27;21047;-79
2024/01/26 10:53:25;;;;;;;2.20;1.57;;;10.50;99.90;;;;;;5114515;27;20622;-79
2024/01/26 10:55:53;;;;;;;1.63;1.30;;;10.60;99.90;;;;;;5096611;28;20778;-79
2024/01/26 10:58:21;;;;;;;2.30;1.40;;;;;;;;;;5089618;28;20624;-79
2024/01/26 11:00:50;;;;;;;1.00;0.93;;;10.80;99.90;;;;;;5092186;27;20723;-78
2024/01/26 11:03:17;;;;;;;1.73;1.30;;;;;;;;;;5109037;28;20726;-79
2024/01/26 11:05:49;;;;;;;1.70;1.23;;;10.80;99.90;;;;;;5106281;28;20766;-79
2024/01/26 11:08:21;;;;;;;1.77;1.40;;;10.80;99.90;;;;;;5104385;28;21026;-78
2024/01/26 11:10:50;;;;;;;1.30;1.20;;;;;;;;;;5113816;28;21183;-79
2024/01/26 11:13:17;;;;;;;4.50;1.20;;;11.00;99.90;;;;;;5110865;27;20628;-79
2024/01/26 11:15:46;;;;;;;1.37;1.10;;;;;;;;;;5115162;27;20619;-78
2024/01/26 11:18:23;;;;;;;1.23;1.13;;;11.00;99.90;;;;;;5108849;28;20623;-78
2024/01/26 11:20:50;;;;;;;2.00;1.20;;;10.80;99.90;;;;;;5096746;28;20624;-79
2024/01/26 11:23:18;;;;;;;1.03;1.00;;;10.90;99.90;;;;;;5097035;28;20647;-78
2024/01/26 11:25:46;;;;;;;1.93;1.33;;;;;;;;;;5093974;28;20664;-78
2024/01/26 11:28:15;;;;;;;1.27;1.03;;;11.00;99.90;;;;;;5099102;27;20633;-78
2024/01/26 11:30:44;;;;;;;1.47;1.37;;;11.20;99.90;;;;;;5103994;28;20710;-78
2024/01/26 11:33:17;;;;;;;1.23;1.13;;;11.00;99.90;;;;;;5106943;28;20632;-79
2024/01/26 11:35:46;;;;;;;1.40;1.30;;;10.20;99.90;;;;;;5105041;28;20718;-79
2024/01/26 11:38:13;;;;;;;1.20;1.13;;;10.90;99.90;;;;;;5104476;28;20970;-79
2024/01/26 11:40:40;;;;;;;5.80;1.93;;;10.90;99.90;;;;;;5110372;27;20637;-79
2024/01/26 11:43:09;;;;;;;1.70;1.30;;;;;;;;;;5118514;27;20957;-78
2024/01/26 11:45:42;;;;;;;1.40;1.30;;;11.00;99.90;;;;;;5117678;27;20664;-79
2024/01/26 11:48:10;;;;;;;1.37;1.13;;;11.10;99.90;;;;;;5117391;27;20635;-79
2024/01/26 11:50:37;;;;;;;1.30;1.20;;;11.00;99.90;;;;;;5116900;27;20626;-79
2024/01/26 11:53:06;;;;;;;1.57;1.47;;;10.90;99.90;;;;;;5116829;27;20611;-78
2024/01/26 11:55:33;;;;;;;1.47;1.37;;;11.20;99.90;;;;;;5101622;28;20629;-79
2024/01/26 11:58:00;;;;;;;2.57;1.60;;;11.00;99.90;;;;;;5116975;27;20627;-79
2024/01/26 12:00:29;;;;;;;1.13;1.03;;;10.70;99.90;;;;;;5116518;27;20615;-79
2024/01/26 12:02:56;;;;;;;7.53;1.23;;;;;;;;;;5116313;27;20635;-79
2024/01/26 12:05:23;;;;;;;1.23;1.20;;;;;;;;;;5115674;27;21015;-78
2024/01/26 12:07:50;;;;;;;2.27;1.10;;;;;;;;;;5114281;27;20725;-78
2024/01/26 12:10:18;;;;;;;2.80;1.23;;;11.00;99.90;;;;;;5113428;27;20666;-79
2024/01/26 12:12:47;;;;;;;1.93;1.47;;;11.20;99.90;;;;;;5115425;27;20627;-79
2024/01/26 12:15:15;;;;;;;1.37;1.00;;;10.70;99.90;;;;;;5115307;27;20612;-78
2024/01/26 12:17:41;;;;;;;1.40;1.20;;;10.90;99.90;;;;;;5115354;27;20643;-78
2024/01/26 12:20:10;;;;;;;2.00;1.30;;;11.40;99.90;;;;;;5115017;27;21468;-79
2024/01/26 12:22:38;;;;;;;2.07;1.40;;;11.30;99.90;;;;;;5111507;28;20630;-78
2024/01/26 12:25:07;;;;;;;1.63;1.53;;;11.30;99.90;;;;;;5114930;27;20722;-79
2024/01/26 12:27:35;;;;;;;1.33;1.23;;;11.10;99.90;;;;;;5114857;27;20621;-78
2024/01/26 12:30:03;;;;;;;1.07;1.03;;;;;;;;;;5101585;27;20776;-78
2024/01/26 12:32:30;;;;;;;1.80;1.53;;;11.10;99.90;;;;;;5106350;27;20727;-78
2024/01/26 12:34:59;;;;;;;1.00;1.00;;;10.90;99.90;;;;;;5103676;27;20620;-79
2024/01/26 12:37:27;;;;;;;1.17;1.07;;;11.10;99.90;;;;;;5111152;27;20627;-79
2024/01/26 12:39:55;;;;;;;1.23;1.00;;;;;;;;;;5112659;27;20619;-79
2024/01/26 12:42:21;;;;;;;1.10;1.00;;;11.10;99.90;;;;;;5106577;27;20619;-79
2024/01/26 12:44:50;;;;;;;1.03;1.03;;;10.90;99.90;;;;;;5113599;27;20688;-79
2024/01/26 12:47:17;;;;;;;0.90;0.90;;;11.00;99.90;;;;;;5113013;27;20674;-79
2024/01/26 12:49:44;;;;;;;1.73;1.10;;;;;;;;;;5102220;28;20620;-79
2024/01/26 12:52:12;;;;;;;1.27;1.17;;;11.20;99.90;;;;;;5102396;27;21053;-78
2024/01/26 12:54:39;;;;;;;1.70;1.13;;;;;;;;;;5097655;28;20679;-78
2024/01/26 12:57:06;;;;;;;1.17;0.83;;;;;;;;;;5092804;27;20631;-77
2024/01/26 12:59:33;;;;;;;0.80;0.80;;;11.10;99.90;;;;;;5103260;27;20632;-80
2024/01/26 13:02:01;;;;;;;1.30;1.03;;;11.00;99.90;;;;;;5103974;27;20660;-80
2024/01/26 13:04:28;;;;;;;1.30;1.20;;;;;;;;;;5093110;28;20723;-80
2024/01/26 13:06:55;;;;;;;1.93;0.90;;;;;;;;;;5104328;28;20671;-80
2024/01/26 13:09:22;;;;;;;5.33;1.10;;;11.20;99.90;;;;;;5095074;27;20633;-79
2024/01/26 13:11:50;;;;;;;1.83;1.17;;;;;;;;;;5099077;27;21276;-79
2024/01/26 13:14:16;;;;;;;1.20;1.10;;;10.60;99.90;;;;;;5100348;28;20630;-78
2024/01/26 13:16:43;;;;;;;1.10;1.00;;;11.10;99.90;;;;;;5103460;27;20727;-79
2024/01/26 13:19:11;;;;;;;1.00;1.00;;;10.70;99.90;;;;;;5106125;27;21247;-78
2024/01/26 13:21:38;;;;;;;1.47;1.10;;;10.70;99.90;;;;;;5102930;27;20714;-79
2024/01/26 13:24:06;;;;;;;1.00;1.00;;;11.00;99.90;;;;;;5112223;27;20729;-77
2024/01/26 13:26:32;;;;;;;0.87;0.87;;;10.90;99.90;;;;;;5114567;27;21317;-78